createdAt,value
2023-04-15T00:01:50.561Z,5.77
2023-04-15T00:04:17.366Z,6.10
2023-04-15T00:06:49.760Z,5.67
2023-04-15T00:09:16.460Z,5.80
2023-04-15T00:11:43.212Z,5.93
2023-04-15T00:14:09.903Z,5.47
2023-04-15T00:16:37.101Z,5.80
2023-04-15T00:19:03.756Z,5.30
2023-04-15T00:21:30.752Z,6.33
2023-04-15T00:23:57.441Z,5.43
2023-04-15T00:26:24.167Z,5.77
2023-04-15T00:28:51.670Z,5.33
2023-04-15T00:31:18.837Z,5.97
2023-04-15T00:33:46.236Z,5.90
2023-04-15T00:36:12.925Z,6.23
2023-04-15T00:38:40.841Z,5.70
2023-04-15T00:41:07.742Z,5.87
2023-04-15T00:43:34.641Z,5.13
2023-04-15T00:46:02.313Z,5.57
2023-04-15T00:48:29.429Z,5.47
2023-04-15T00:50:56.140Z,5.50
2023-04-15T00:53:22.839Z,5.80
2023-04-15T00:55:49.892Z,5.10
2023-04-15T00:58:17.152Z,5.33
2023-04-15T01:00:43.877Z,4.73
2023-04-15T01:03:11.476Z,5.37
2023-04-15T01:05:38.477Z,5.37
2023-04-15T01:08:05.725Z,5.07
2023-04-15T01:10:33.181Z,4.90
2023-04-15T01:13:00.032Z,4.70
2023-04-15T01:15:27.438Z,4.77
2023-04-15T01:17:54.533Z,5.20
2023-04-15T01:20:22.064Z,5.03
2023-04-15T01:22:49.307Z,4.43
2023-04-15T01:25:19.747Z,4.50
2023-04-15T01:27:46.440Z,4.60
2023-04-15T01:30:13.138Z,4.70
2023-04-15T01:32:39.852Z,4.47
2023-04-15T01:35:07.605Z,4.67
2023-04-15T01:37:34.454Z,4.97
2023-04-15T01:40:01.160Z,4.97
2023-04-15T01:42:28.263Z,4.43
2023-04-15T01:44:54.898Z,4.30
2023-04-15T01:47:22.677Z,4.93
2023-04-15T01:49:49.393Z,4.67
2023-04-15T01:52:16.110Z,4.87
2023-04-15T01:54:42.816Z,5.07
2023-04-15T01:57:09.788Z,4.93
2023-04-15T01:59:37.003Z,4.60
2023-04-15T02:02:04.572Z,4.57
2023-04-15T02:04:31.676Z,4.53
2023-04-15T02:07:00.673Z,4.67
2023-04-15T02:09:27.393Z,4.87
2023-04-15T02:11:54.276Z,4.90
2023-04-15T02:14:21.354Z,4.93
2023-04-15T02:16:48.188Z,4.87
2023-04-15T02:19:16.043Z,4.80
2023-04-15T02:21:42.755Z,4.77
2023-04-15T02:24:09.511Z,5.27
2023-04-15T02:26:36.172Z,5.20
2023-04-15T02:29:03.064Z,4.80
2023-04-15T02:31:29.882Z,5.00
2023-04-15T02:33:56.691Z,4.53
2023-04-15T02:36:23.807Z,4.93
2023-04-15T02:38:50.625Z,4.97
2023-04-15T02:41:17.393Z,4.60
2023-04-15T02:43:45.570Z,4.43
2023-04-15T02:46:14.640Z,4.57
2023-04-15T02:48:41.830Z,4.57
2023-04-15T02:51:19.915Z,4.73
2023-04-15T02:53:49.980Z,4.97
2023-04-15T02:56:17.425Z,4.77
2023-04-15T02:58:45.007Z,4.97
2023-04-15T03:01:12.044Z,4.00
2023-04-15T03:03:39.534Z,4.77
2023-04-15T03:06:06.478Z,4.60
2023-04-15T03:08:33.496Z,4.60
2023-04-15T03:11:02.518Z,4.43
2023-04-15T03:13:29.236Z,4.17
2023-04-15T03:15:57.688Z,4.43
2023-04-15T03:18:24.450Z,4.30
2023-04-15T03:20:51.106Z,4.37
2023-04-15T03:23:17.780Z,4.50
2023-04-15T03:25:45.107Z,4.13
2023-04-15T03:28:12.112Z,4.60
2023-04-15T03:30:38.763Z,4.40
2023-04-15T03:33:05.565Z,4.43
2023-04-15T03:35:32.437Z,4.23
2023-04-15T03:37:59.125Z,4.00
2023-04-15T03:40:26.084Z,4.10
2023-04-15T03:42:52.740Z,4.30
2023-04-15T03:45:19.414Z,4.87
2023-04-15T03:47:46.405Z,4.50
2023-04-15T03:50:13.149Z,4.77
2023-04-15T03:52:39.816Z,3.97
2023-04-15T03:55:06.782Z,4.30
2023-04-15T03:57:37.907Z,4.60
2023-04-15T04:00:05.443Z,4.73
2023-04-15T04:02:38.665Z,5.10
2023-04-15T04:05:05.542Z,4.63
2023-04-15T04:07:32.337Z,4.93
2023-04-15T04:09:59.022Z,4.63
2023-04-15T04:12:25.653Z,5.23
2023-04-15T04:14:52.340Z,4.87
2023-04-15T04:17:19.101Z,5.33
2023-04-15T04:19:45.804Z,5.20
2023-04-15T04:22:12.452Z,4.53
2023-04-15T04:24:39.256Z,4.90
2023-04-15T04:27:06.181Z,5.00
2023-04-15T04:29:32.864Z,4.97
2023-04-15T04:31:59.586Z,4.90
2023-04-15T04:34:26.545Z,4.80
2023-04-15T04:36:53.176Z,5.50
2023-04-15T04:39:19.805Z,5.67
2023-04-15T04:41:46.557Z,4.57
2023-04-15T04:44:13.176Z,4.70
2023-04-15T04:46:39.847Z,4.97
2023-04-15T04:49:06.888Z,4.73
2023-04-15T04:51:33.610Z,5.23
2023-04-15T04:54:01.821Z,5.10
2023-04-15T04:56:30.206Z,4.90
2023-04-15T04:58:57.022Z,4.70
2023-04-15T05:01:23.822Z,4.00
2023-04-15T05:03:50.664Z,5.60
2023-04-15T05:06:17.367Z,5.53
2023-04-15T05:08:44.054Z,4.60
2023-04-15T05:11:11.039Z,4.50
2023-04-15T05:13:38.832Z,4.93
2023-04-15T05:16:06.118Z,4.83
2023-04-15T05:18:33.151Z,5.00
2023-04-15T05:20:59.892Z,5.00
2023-04-15T05:23:27.004Z,5.00
2023-04-15T05:25:53.672Z,4.97
2023-04-15T05:28:20.374Z,5.60
2023-04-15T05:30:47.154Z,5.40
2023-04-15T05:33:13.938Z,5.33
2023-04-15T05:35:40.592Z,5.03
2023-04-15T05:38:07.221Z,4.73
2023-04-15T05:40:33.930Z,5.20
2023-04-15T05:43:01.059Z,4.70
2023-04-15T05:45:27.883Z,5.00
2023-04-15T05:47:54.657Z,5.60
2023-04-15T05:50:21.387Z,5.67
2023-04-15T05:52:48.047Z,5.20
2023-04-15T05:55:14.753Z,5.07
2023-04-15T05:57:41.433Z,5.83
2023-04-15T06:00:08.313Z,5.10
2023-04-15T06:02:37.998Z,5.57
2023-04-15T06:05:11.717Z,5.33
2023-04-15T06:07:38.672Z,5.03
2023-04-15T06:10:05.867Z,5.50
2023-04-15T06:12:32.694Z,5.10
2023-04-15T06:15:00.226Z,5.20
2023-04-15T06:17:27.293Z,5.63
2023-04-15T06:19:55.750Z,5.57
2023-04-15T06:22:25.484Z,5.90
2023-04-15T06:24:52.288Z,5.47
2023-04-15T06:27:19.038Z,5.43
2023-04-15T06:29:46.221Z,5.17
2023-04-15T06:32:13.062Z,5.93
2023-04-15T06:34:39.947Z,5.40
2023-04-15T06:37:06.616Z,6.20
2023-04-15T06:39:33.398Z,5.57
2023-04-15T06:42:00.146Z,5.80
2023-04-15T06:44:26.929Z,6.77
2023-04-15T06:46:53.696Z,5.47
2023-04-15T06:49:20.759Z,5.40
2023-04-15T06:51:47.488Z,5.60
2023-04-15T06:54:14.223Z,5.23
2023-04-15T06:56:41.848Z,5.33
2023-04-15T06:59:08.695Z,5.30
2023-04-15T07:01:35.499Z,5.53
2023-04-15T07:04:02.585Z,5.60
2023-04-15T07:06:29.410Z,5.87
2023-04-15T07:08:56.031Z,5.67
2023-04-15T07:11:22.719Z,5.90
2023-04-15T07:13:49.405Z,6.27
2023-04-15T07:16:16.154Z,6.33
2023-04-15T07:18:43.582Z,5.70
2023-04-15T07:21:11.656Z,6.70
2023-04-15T07:23:38.332Z,6.53
2023-04-15T07:26:05.713Z,7.27
2023-04-15T07:28:32.481Z,7.07
2023-04-15T07:30:59.343Z,5.83
2023-04-15T07:33:26.203Z,4.50
2023-04-15T07:35:53.274Z,5.63
2023-04-15T07:38:20.116Z,5.13
2023-04-15T07:40:47.244Z,5.47
2023-04-15T07:43:14.127Z,5.10
2023-04-15T07:45:40.900Z,5.43
2023-04-15T07:48:08.016Z,5.13
2023-04-15T07:50:34.824Z,5.30
2023-04-15T07:53:01.569Z,5.03
2023-04-15T07:55:28.535Z,4.90
2023-04-15T07:57:55.216Z,3.37
2023-04-15T08:00:21.927Z,4.10
2023-04-15T08:02:49.778Z,3.77
2023-04-15T08:05:16.877Z,4.00
2023-04-15T08:07:43.674Z,4.43
2023-04-15T08:10:13.756Z,3.83
2023-04-15T08:12:40.892Z,4.13
2023-04-15T08:15:08.365Z,4.40
2023-04-15T08:17:35.119Z,4.03
2023-04-15T08:20:01.773Z,4.27
2023-04-15T08:22:28.682Z,3.40
2023-04-15T08:24:55.352Z,3.73
2023-04-15T08:27:21.971Z,3.77
2023-04-15T08:29:48.709Z,3.60
2023-04-15T08:32:15.502Z,2.80
2023-04-15T08:34:42.659Z,2.53
2023-04-15T08:37:10.856Z,2.17
2023-04-15T08:39:38.615Z,2.50
2023-04-15T08:42:08.152Z,1.73
2023-04-15T08:44:36.083Z,1.80
2023-04-15T08:47:03.688Z,1.63
2023-04-15T08:49:31.353Z,1.53
2023-04-15T08:51:59.277Z,1.20
2023-04-15T08:54:27.026Z,1.13
2023-04-15T08:56:54.335Z,1.27
2023-04-15T08:59:22.220Z,1.27
2023-04-15T09:01:50.799Z,1.20
2023-04-15T09:04:17.748Z,1.30
2023-04-15T09:06:44.730Z,1.23
2023-04-15T09:09:12.229Z,1.10
2023-04-15T09:11:38.948Z,1.60
2023-04-15T09:14:05.679Z,1.20
2023-04-15T09:16:32.891Z,1.57
2023-04-15T09:18:59.695Z,1.37
2023-04-15T09:21:26.472Z,1.50
2023-04-15T09:24:00.550Z,1.60
2023-04-15T09:26:30.754Z,1.40
2023-04-15T09:29:03.887Z,1.80
2023-04-15T09:31:31.243Z,1.97
2023-04-15T09:33:57.929Z,1.90
2023-04-15T09:36:29.778Z,1.80
2023-04-15T09:38:57.381Z,2.00
2023-04-15T09:41:25.604Z,1.90
2023-04-15T09:43:52.417Z,1.63
2023-04-15T09:46:19.348Z,1.90
2023-04-15T09:48:46.566Z,1.80
2023-04-15T09:51:13.226Z,1.97
2023-04-15T09:53:39.926Z,1.80
2023-04-15T09:56:08.724Z,2.07
2023-04-15T09:58:36.037Z,2.20
2023-04-15T10:01:04.270Z,2.03
2023-04-15T10:03:32.152Z,2.03
2023-04-15T10:06:00.157Z,2.10
2023-04-15T10:08:27.820Z,1.80
2023-04-15T10:10:54.567Z,1.93
2023-04-15T10:13:23.996Z,1.73
2023-04-15T10:16:07.480Z,2.13
2023-04-15T10:18:40.523Z,1.80
2023-04-15T10:21:08.595Z,2.13
2023-04-15T10:23:35.437Z,2.13
2023-04-15T10:26:04.068Z,1.67
2023-04-15T10:28:30.805Z,1.87
2023-04-15T10:30:57.967Z,2.10
2023-04-15T10:33:25.379Z,1.90
2023-04-15T10:35:53.014Z,1.90
2023-04-15T10:38:35.197Z,2.23
2023-04-15T10:41:21.211Z,2.10
2023-04-15T10:43:49.658Z,2.20
2023-04-15T10:46:20.805Z,2.00
2023-04-15T10:48:48.945Z,2.47
2023-04-15T10:51:15.708Z,2.27
2023-04-15T10:53:42.714Z,2.50
2023-04-15T10:56:10.064Z,2.37
2023-04-15T10:58:43.773Z,2.53
2023-04-15T11:01:10.582Z,2.60
2023-04-15T11:03:39.280Z,2.60
2023-04-15T11:06:06.918Z,2.27
2023-04-15T11:08:52.128Z,2.60
2023-04-15T11:11:18.852Z,5.40
2023-04-15T11:13:48.071Z,3.70
2023-04-15T11:16:14.827Z,2.67
2023-04-15T11:18:41.535Z,2.40
2023-04-15T11:21:09.296Z,2.13
2023-04-15T11:23:37.702Z,2.27
2023-04-15T11:26:09.812Z,2.00
2023-04-15T11:28:38.813Z,2.30
2023-04-15T11:31:16.212Z,2.10
2023-04-15T11:33:53.274Z,2.00
2023-04-15T11:36:20.028Z,2.37
2023-04-15T11:38:47.607Z,1.63
2023-04-15T11:41:14.351Z,1.90
2023-04-15T11:43:41.387Z,1.90
2023-04-15T11:46:08.840Z,2.00
2023-04-15T11:48:36.045Z,2.23
2023-04-15T11:51:07.102Z,2.00
2023-04-15T11:53:38.320Z,2.00
2023-04-15T11:56:05.543Z,2.20
2023-04-15T11:58:34.280Z,1.80
2023-04-15T12:01:01.136Z,1.70
2023-04-15T12:03:29.138Z,2.00
2023-04-15T12:06:16.439Z,2.23
2023-04-15T12:08:55.689Z,2.07
2023-04-15T12:11:31.428Z,2.10
2023-04-15T12:13:59.558Z,1.77
2023-04-15T12:16:27.885Z,1.60
2023-04-15T12:18:58.821Z,1.90
2023-04-15T12:21:26.385Z,1.90
2023-04-15T12:23:53.972Z,1.60
2023-04-15T12:26:31.898Z,1.87
2023-04-15T12:29:08.197Z,1.40
2023-04-15T12:31:36.628Z,1.87
2023-04-15T12:34:04.548Z,1.33
2023-04-15T12:36:37.092Z,1.40
2023-04-15T12:39:04.672Z,1.63
2023-04-15T12:41:34.545Z,1.60
2023-04-15T12:44:01.413Z,1.80
2023-04-15T12:46:28.389Z,1.70
2023-04-15T12:48:55.040Z,1.87
2023-04-15T12:51:21.798Z,1.90
2023-04-15T12:53:49.611Z,1.97
2023-04-15T12:56:17.142Z,1.90
2023-04-15T12:58:43.866Z,1.97
2023-04-15T13:01:11.148Z,2.10
2023-04-15T13:03:37.990Z,1.63
2023-04-15T13:06:05.248Z,1.80
2023-04-15T13:08:32.096Z,1.77
2023-04-15T13:10:58.778Z,2.03
2023-04-15T13:13:25.646Z,1.90
2023-04-15T13:15:52.378Z,1.70
2023-04-15T13:18:19.389Z,1.30
2023-04-15T13:20:46.096Z,1.20
2023-04-15T13:23:12.727Z,1.37
2023-04-15T13:25:39.382Z,1.40
2023-04-15T13:28:06.672Z,1.97
2023-04-15T13:30:33.382Z,1.90
2023-04-15T13:33:00.100Z,1.60
2023-04-15T13:35:26.870Z,1.73
2023-04-15T13:37:53.934Z,1.60
2023-04-15T13:40:20.822Z,1.43
2023-04-15T13:42:47.631Z,1.60
2023-04-15T13:45:14.379Z,1.70
2023-04-15T13:47:41.669Z,1.70
2023-04-15T13:50:08.503Z,1.80
2023-04-15T13:52:35.442Z,1.70
2023-04-15T13:55:10.308Z,1.80
2023-04-15T13:57:46.540Z,1.77
2023-04-15T14:00:13.956Z,2.10
2023-04-15T14:02:41.958Z,2.23
2023-04-15T14:05:09.025Z,1.93
2023-04-15T14:07:35.850Z,1.80
2023-04-15T14:10:02.732Z,1.60
2023-04-15T14:12:29.391Z,1.80
2023-04-15T14:14:56.144Z,2.17
2023-04-15T14:17:22.948Z,1.67
2023-04-15T14:19:49.649Z,1.87
2023-04-15T14:22:18.428Z,1.93
2023-04-15T14:24:45.342Z,1.83
2023-04-15T14:27:12.556Z,1.80
2023-04-15T14:29:39.365Z,1.70
2023-04-15T14:32:11.969Z,2.00
2023-04-15T14:34:39.857Z,1.77
2023-04-15T14:37:06.962Z,1.60
2023-04-15T14:39:33.682Z,1.90
2023-04-15T14:42:00.421Z,1.70
2023-04-15T14:44:27.261Z,1.40
2023-04-15T14:46:54.827Z,1.50
2023-04-15T14:49:21.596Z,1.53
2023-04-15T14:51:48.337Z,1.50
2023-04-15T14:54:15.276Z,1.63
2023-04-15T14:56:41.925Z,1.50
2023-04-15T14:59:08.697Z,1.60
2023-04-15T15:01:35.567Z,1.60
2023-04-15T15:04:02.372Z,1.60
2023-04-15T15:06:29.148Z,1.77
2023-04-15T15:08:55.880Z,1.83
2023-04-15T15:11:22.551Z,1.63
2023-04-15T15:13:49.188Z,4.93
2023-04-15T15:16:15.911Z,8.17
2023-04-15T15:18:42.676Z,3.07
2023-04-15T15:21:09.405Z,2.40
2023-04-15T15:23:36.187Z,3.97
2023-04-15T15:26:02.932Z,2.10
2023-04-15T15:28:29.635Z,2.10
2023-04-15T15:30:56.415Z,1.50
2023-04-15T15:33:23.369Z,1.50
2023-04-15T15:35:50.565Z,1.53
2023-04-15T15:38:17.216Z,1.60
2023-04-15T15:40:43.907Z,1.30
2023-04-15T15:43:10.617Z,1.60
2023-04-15T15:45:37.367Z,1.67
2023-04-15T15:48:04.502Z,1.60
2023-04-15T15:50:31.533Z,1.70
2023-04-15T15:52:58.606Z,1.90
2023-04-15T15:55:26.990Z,1.90
2023-04-15T15:57:54.277Z,1.97
2023-04-15T16:00:21.789Z,1.87
2023-04-15T16:03:05.790Z,2.40
2023-04-15T16:05:33.826Z,2.27
2023-04-15T16:08:00.558Z,2.83
2023-04-15T16:10:27.575Z,2.40
2023-04-15T16:12:54.310Z,2.33
2023-04-15T16:15:21.884Z,2.27
2023-04-15T16:17:48.606Z,2.50
2023-04-15T16:20:15.364Z,2.53
2023-04-15T16:22:42.203Z,2.37
2023-04-15T16:25:09.061Z,2.50
2023-04-15T16:27:43.529Z,2.50
2023-04-15T16:30:22.165Z,2.80
2023-04-15T16:32:49.060Z,2.80
2023-04-15T16:35:16.796Z,3.03
2023-04-15T16:37:43.571Z,3.20
2023-04-15T16:40:10.473Z,3.87
2023-04-15T16:42:37.207Z,3.90
2023-04-15T16:45:04.108Z,3.90
2023-04-15T16:47:30.871Z,3.33
2023-04-15T16:49:57.588Z,3.03
2023-04-15T16:52:24.263Z,3.40
2023-04-15T16:54:50.970Z,3.23
2023-04-15T16:57:17.669Z,3.60
2023-04-15T16:59:44.967Z,3.33
2023-04-15T17:02:13.080Z,2.63
2023-04-15T17:04:39.939Z,2.60
2023-04-15T17:07:09.209Z,2.60
2023-04-15T17:09:36.804Z,2.80
2023-04-15T17:12:04.579Z,2.63
2023-04-15T17:14:31.778Z,2.80
2023-04-15T17:16:58.580Z,2.87
2023-04-15T17:19:26.684Z,2.60
2023-04-15T17:21:54.949Z,2.80
2023-04-15T17:24:21.859Z,2.70
2023-04-15T17:26:48.706Z,3.13
2023-04-15T17:29:15.427Z,2.83
2023-04-15T17:31:42.303Z,2.90
2023-04-15T17:34:11.230Z,2.87
2023-04-15T17:36:38.912Z,2.83
2023-04-15T17:39:05.713Z,2.70
2023-04-15T17:41:32.582Z,3.30
2023-04-15T17:43:59.398Z,2.97
2023-04-15T17:46:26.555Z,2.60
2023-04-15T17:48:53.246Z,2.90
2023-04-15T17:51:19.896Z,2.60
2023-04-15T17:53:46.553Z,3.00
2023-04-15T17:56:13.213Z,3.10
2023-04-15T17:58:39.947Z,3.00
2023-04-15T18:01:06.810Z,2.77
2023-04-15T18:03:33.599Z,3.03
2023-04-15T18:06:01.269Z,4.57
2023-04-15T18:08:28.432Z,3.80
2023-04-15T18:10:55.164Z,3.90
2023-04-15T18:13:22.031Z,2.87
2023-04-15T18:15:50.640Z,2.57
2023-04-15T18:18:17.353Z,2.90
2023-04-15T18:20:44.012Z,3.07
2023-04-15T18:23:10.760Z,3.03
2023-04-15T18:25:38.271Z,2.87
2023-04-15T18:28:05.527Z,3.00
2023-04-15T18:30:32.289Z,3.07
2023-04-15T18:32:59.002Z,2.87
2023-04-15T18:35:25.724Z,2.33
2023-04-15T18:37:52.842Z,3.43
2023-04-15T18:40:19.561Z,2.90
2023-04-15T18:42:46.277Z,2.83
2023-04-15T18:45:13.030Z,2.97
2023-04-15T18:47:39.765Z,3.13
2023-04-15T18:50:07.048Z,3.40
2023-04-15T18:52:34.169Z,3.30
2023-04-15T18:55:02.959Z,2.90
2023-04-15T18:57:36.042Z,2.60
2023-04-15T19:00:04.803Z,2.70
2023-04-15T19:02:31.565Z,2.40
2023-04-15T19:04:58.310Z,2.30
2023-04-15T19:07:25.071Z,2.20
2023-04-15T19:09:52.652Z,2.13
2023-04-15T19:12:19.517Z,2.10
2023-04-15T19:14:46.195Z,2.43
2023-04-15T19:17:12.856Z,2.40
2023-04-15T19:19:39.467Z,2.40
2023-04-15T19:22:06.652Z,2.27
2023-04-15T19:24:33.648Z,2.43
2023-04-15T19:27:01.412Z,2.30
2023-04-15T19:29:31.001Z,1.90
2023-04-15T19:31:57.685Z,2.33
2023-04-15T19:34:25.155Z,2.07
2023-04-15T19:36:51.938Z,2.40
2023-04-15T19:39:18.825Z,2.47
2023-04-15T19:41:45.753Z,2.50
2023-04-15T19:44:12.966Z,2.70
2023-04-15T19:46:40.378Z,2.63
2023-04-15T19:49:07.281Z,2.63
2023-04-15T19:51:34.194Z,2.47
2023-04-15T19:54:00.978Z,2.23
2023-04-15T19:56:27.913Z,2.03
2023-04-15T19:58:54.862Z,1.90
2023-04-15T20:01:22.049Z,2.10
2023-04-15T20:03:48.930Z,2.30
2023-04-15T20:06:15.856Z,2.03
2023-04-15T20:08:42.609Z,1.80
2023-04-15T20:11:09.574Z,1.90
2023-04-15T20:13:36.297Z,2.00
2023-04-15T20:16:03.515Z,2.23
2023-04-15T20:18:30.674Z,2.20
2023-04-15T20:20:57.422Z,2.27
2023-04-15T20:23:24.111Z,2.20
2023-04-15T20:25:50.733Z,2.30
2023-04-15T20:28:19.126Z,2.33
2023-04-15T20:30:47.060Z,2.00
2023-04-15T20:33:14.073Z,2.10
2023-04-15T20:35:41.112Z,2.57
2023-04-15T20:38:07.795Z,2.47
2023-04-15T20:40:34.494Z,2.27
2023-04-15T20:43:01.229Z,2.60
2023-04-15T20:45:27.983Z,2.80
2023-04-15T20:47:55.896Z,3.57
2023-04-15T20:50:22.575Z,3.30
2023-04-15T20:52:49.246Z,3.23
2023-04-15T20:55:16.110Z,2.93
2023-04-15T20:57:42.888Z,3.40
2023-04-15T21:00:10.777Z,2.87
2023-04-15T21:02:38.119Z,3.07
2023-04-15T21:05:05.173Z,3.40
2023-04-15T21:07:31.977Z,3.20
2023-04-15T21:09:58.678Z,3.10
2023-04-15T21:12:25.378Z,2.90
2023-04-15T21:14:52.308Z,3.33
2023-04-15T21:17:19.228Z,3.27
2023-04-15T21:19:46.081Z,3.20
2023-04-15T21:22:12.745Z,3.67
2023-04-15T21:24:39.489Z,3.20
2023-04-15T21:27:06.231Z,3.10
2023-04-15T21:29:32.931Z,3.50
2023-04-15T21:31:59.653Z,3.47
2023-04-15T21:34:26.519Z,3.70
2023-04-15T21:36:53.181Z,3.80
2023-04-15T21:39:19.862Z,4.13
2023-04-15T21:41:46.584Z,3.77
2023-04-15T21:44:14.858Z,3.63
2023-04-15T21:46:42.029Z,4.20
2023-04-15T21:49:13.055Z,4.00
2023-04-15T21:51:39.764Z,3.83
2023-04-15T21:54:06.421Z,3.60
2023-04-15T21:56:33.176Z,3.77
2023-04-15T21:58:59.853Z,3.97
2023-04-15T22:01:26.697Z,3.80
2023-04-15T22:03:53.661Z,3.80
2023-04-15T22:06:21.048Z,3.87
2023-04-15T22:08:56.200Z,4.07
2023-04-15T22:11:27.454Z,3.77
2023-04-15T22:13:54.975Z,4.30
2023-04-15T22:16:21.784Z,3.93
2023-04-15T22:18:48.695Z,3.60
2023-04-15T22:21:15.500Z,3.80
2023-04-15T22:23:45.683Z,4.10
2023-04-15T22:26:12.319Z,4.20
2023-04-15T22:28:39.049Z,4.20
2023-04-15T22:31:05.954Z,4.03
2023-04-15T22:33:32.592Z,4.63
2023-04-15T22:35:59.257Z,4.70
2023-04-15T22:38:25.913Z,3.97
2023-04-15T22:40:53.884Z,4.53
2023-04-15T22:43:20.609Z,4.47
2023-04-15T22:45:50.680Z,4.47
2023-04-15T22:48:17.983Z,4.93
2023-04-15T22:50:44.692Z,4.37
2023-04-15T22:53:11.370Z,4.30
2023-04-15T22:55:38.203Z,4.30
2023-04-15T22:58:04.965Z,4.33
2023-04-15T23:00:31.621Z,4.60
2023-04-15T23:02:58.423Z,4.90
2023-04-15T23:05:25.239Z,5.00
2023-04-15T23:07:51.943Z,5.00
2023-04-15T23:10:18.647Z,5.50
2023-04-15T23:12:45.494Z,5.40
2023-04-15T23:15:12.168Z,5.43
2023-04-15T23:17:38.967Z,4.50
2023-04-15T23:20:06.319Z,4.50
2023-04-15T23:22:37.268Z,5.20
2023-04-15T23:25:04.540Z,5.47
2023-04-15T23:27:31.214Z,5.53
2023-04-15T23:29:57.844Z,5.77
2023-04-15T23:32:24.576Z,5.70
2023-04-15T23:34:52.162Z,5.67
2023-04-15T23:37:18.892Z,5.80
2023-04-15T23:39:45.645Z,5.10
2023-04-15T23:42:12.305Z,4.73
2023-04-15T23:44:38.942Z,5.23
2023-04-15T23:47:05.656Z,5.10
2023-04-15T23:49:32.368Z,5.63
2023-04-15T23:51:59.063Z,4.90
2023-04-15T23:54:25.717Z,4.60
2023-04-15T23:56:52.372Z,5.13
2023-04-15T23:59:19.083Z,5.63
